createdAt,value
2023-02-04T00:01:13.684Z,7.20
2023-02-04T00:03:40.251Z,7.20
2023-02-04T00:06:07.090Z,7.20
2023-02-04T00:08:33.695Z,7.20
2023-02-04T00:11:00.257Z,7.20
2023-02-04T00:13:26.841Z,7.20
2023-02-04T00:15:53.466Z,7.20
2023-02-04T00:18:22.036Z,7.20
2023-02-04T00:20:48.725Z,7.20
2023-02-04T00:23:18.024Z,7.20
2023-02-04T00:25:44.579Z,7.20
2023-02-04T00:28:11.174Z,7.20
2023-02-04T00:30:37.778Z,7.20
2023-02-04T00:33:04.365Z,7.20
2023-02-04T00:35:31.032Z,7.20
2023-02-04T00:37:57.628Z,7.20
2023-02-04T00:40:24.251Z,7.20
2023-02-04T00:42:50.859Z,7.20
2023-02-04T00:45:17.512Z,7.20
2023-02-04T00:47:44.026Z,7.20
2023-02-04T00:50:10.653Z,7.10
2023-02-04T00:52:37.230Z,7.10
2023-02-04T00:55:04.634Z,7.10
2023-02-04T00:57:31.179Z,7.10
2023-02-04T00:59:57.760Z,7.10
2023-02-04T01:02:24.324Z,7.10
2023-02-04T01:04:50.943Z,7.10
2023-02-04T01:07:18.173Z,7.10
2023-02-04T01:09:44.786Z,7.10
2023-02-04T01:12:11.691Z,7.10
2023-02-04T01:14:38.424Z,7.10
2023-02-04T01:17:05.007Z,7.10
2023-02-04T01:19:31.564Z,7.10
2023-02-04T01:21:58.164Z,7.10
2023-02-04T01:24:24.701Z,7.10
2023-02-04T01:26:51.291Z,7.10
2023-02-04T01:29:17.890Z,7.10
2023-02-04T01:31:44.475Z,7.10
2023-02-04T01:34:11.083Z,7.10
2023-02-04T01:36:40.658Z,7.10
2023-02-04T01:39:07.179Z,8.40
2023-02-04T01:41:33.814Z,7.20
2023-02-04T01:44:00.415Z,7.20
2023-02-04T01:46:27.032Z,7.20
2023-02-04T01:48:54.077Z,7.20
2023-02-04T01:51:27.901Z,7.20
2023-02-04T01:53:55.319Z,7.20
2023-02-04T01:56:26.808Z,7.10
2023-02-04T01:58:55.401Z,7.10
2023-02-04T02:01:40.641Z,7.10
2023-02-04T02:04:12.466Z,7.10
2023-02-04T02:06:42.246Z,7.20
2023-02-04T02:09:08.839Z,7.20
2023-02-04T02:11:35.644Z,7.20
2023-02-04T02:14:03.954Z,7.20
2023-02-04T02:16:30.863Z,7.20
2023-02-04T02:18:58.622Z,7.30
2023-02-04T02:21:38.170Z,7.20
2023-02-04T02:24:32.350Z,7.20
2023-02-04T02:27:03.156Z,7.20
2023-02-04T02:29:30.068Z,7.20
2023-02-04T02:31:57.936Z,7.20
2023-02-04T02:34:27.018Z,7.20
2023-02-04T02:36:53.846Z,7.10
2023-02-04T02:39:21.551Z,7.20
2023-02-04T02:41:48.422Z,7.20
2023-02-04T02:44:16.422Z,7.20
2023-02-04T02:46:43.222Z,7.20
2023-02-04T02:49:15.474Z,7.20
2023-02-04T02:51:42.700Z,7.20
2023-02-04T02:54:21.513Z,7.20
2023-02-04T02:56:48.440Z,7.20
2023-02-04T02:59:16.190Z,7.20
2023-02-04T03:01:43.873Z,7.20
2023-02-04T03:04:12.138Z,7.20
2023-02-04T03:06:39.235Z,7.20
2023-02-04T03:09:06.355Z,7.20
2023-02-04T03:11:33.023Z,7.20
2023-02-04T03:14:01.602Z,7.20
2023-02-04T03:16:32.605Z,7.20
2023-02-04T03:19:01.291Z,7.20
2023-02-04T03:21:28.575Z,7.20
2023-02-04T03:23:56.659Z,7.20
2023-02-04T03:26:26.880Z,7.20
2023-02-04T03:28:54.653Z,7.30
2023-02-04T03:31:24.057Z,7.30
2023-02-04T03:33:50.654Z,7.30
2023-02-04T03:36:17.377Z,7.30
2023-02-04T03:38:44.052Z,7.30
2023-02-04T03:41:10.611Z,7.30
2023-02-04T03:43:37.174Z,7.20
2023-02-04T03:46:03.879Z,7.30
2023-02-04T03:48:30.580Z,7.30
2023-02-04T03:50:57.164Z,7.30
2023-02-04T03:53:24.409Z,7.30
2023-02-04T03:55:50.984Z,7.30
2023-02-04T03:58:17.746Z,7.30
2023-02-04T04:00:44.377Z,7.30
2023-02-04T04:03:10.994Z,7.30
2023-02-04T04:05:37.578Z,7.30
2023-02-04T04:08:04.312Z,7.30
2023-02-04T04:10:31.419Z,7.30
2023-02-04T04:12:58.296Z,7.20
2023-02-04T04:15:25.149Z,7.30
2023-02-04T04:17:51.754Z,7.20
2023-02-04T04:20:18.404Z,7.20
2023-02-04T04:22:45.925Z,7.20
2023-02-04T04:25:12.587Z,7.20
2023-02-04T04:27:39.257Z,7.20
2023-02-04T04:30:06.084Z,7.20
2023-02-04T04:32:32.637Z,7.20
2023-02-04T04:34:59.433Z,7.20
2023-02-04T04:37:26.101Z,7.20
2023-02-04T04:39:52.911Z,7.20
2023-02-04T04:42:19.473Z,7.20
2023-02-04T04:44:46.089Z,7.20
2023-02-04T04:47:12.660Z,7.20
2023-02-04T04:49:39.309Z,7.20
2023-02-04T04:52:05.916Z,7.20
2023-02-04T04:54:32.506Z,7.20
2023-02-04T04:56:59.104Z,7.20
2023-02-04T04:59:25.689Z,7.20
2023-02-04T05:01:52.283Z,7.20
2023-02-04T05:04:18.889Z,7.20
2023-02-04T05:06:45.868Z,7.10
2023-02-04T05:09:12.548Z,7.10
2023-02-04T05:11:39.093Z,7.10
2023-02-04T05:14:05.736Z,7.10
2023-02-04T05:16:32.380Z,7.10
2023-02-04T05:18:58.996Z,7.10
2023-02-04T05:21:25.522Z,7.20
2023-02-04T05:23:52.092Z,7.10
2023-02-04T05:26:29.485Z,7.10
2023-02-04T05:28:57.263Z,7.10
2023-02-04T05:31:23.992Z,7.10
2023-02-04T05:33:50.636Z,7.10
2023-02-04T05:36:17.829Z,7.10
2023-02-04T05:38:44.464Z,7.10
2023-02-04T05:41:11.021Z,7.10
2023-02-04T05:43:37.682Z,7.10
2023-02-04T05:46:04.474Z,7.10
2023-02-04T05:48:31.212Z,7.00
2023-02-04T05:50:58.181Z,7.00
2023-02-04T05:53:26.159Z,7.00
2023-02-04T05:55:52.856Z,6.90
2023-02-04T05:58:19.429Z,6.90
2023-02-04T06:00:46.064Z,6.90
2023-02-04T06:03:14.365Z,6.90
2023-02-04T06:05:41.129Z,6.90
2023-02-04T06:08:07.718Z,6.90
2023-02-04T06:10:34.402Z,6.90
2023-02-04T06:13:01.152Z,6.90
2023-02-04T06:15:27.817Z,6.90
2023-02-04T06:17:54.499Z,6.90
2023-02-04T06:20:21.166Z,7.00
2023-02-04T06:22:51.468Z,6.90
2023-02-04T06:25:18.528Z,6.90
2023-02-04T06:27:45.097Z,6.90
2023-02-04T06:30:12.103Z,6.90
2023-02-04T06:32:38.676Z,6.90
2023-02-04T06:35:05.653Z,6.90
2023-02-04T06:37:32.390Z,6.80
2023-02-04T06:39:59.028Z,6.80
2023-02-04T06:42:25.643Z,6.80
2023-02-04T06:44:53.119Z,6.80
2023-02-04T06:47:20.428Z,6.80
2023-02-04T06:49:47.006Z,6.80
2023-02-04T06:52:13.577Z,6.80
2023-02-04T06:54:40.183Z,6.70
2023-02-04T06:57:06.808Z,6.80
2023-02-04T06:59:38.051Z,6.80
2023-02-04T07:02:06.876Z,6.80
2023-02-04T07:04:34.474Z,6.80
2023-02-04T07:07:01.150Z,6.80
2023-02-04T07:09:27.699Z,6.80
2023-02-04T07:11:54.511Z,6.80
2023-02-04T07:14:21.096Z,6.80
2023-02-04T07:16:47.640Z,6.70
2023-02-04T07:19:14.259Z,6.70
2023-02-04T07:21:40.867Z,6.80
2023-02-04T07:24:07.477Z,6.80
2023-02-04T07:26:34.335Z,6.80
2023-02-04T07:29:01.064Z,6.80
2023-02-04T07:31:27.826Z,6.80
2023-02-04T07:33:54.478Z,6.90
2023-02-04T07:36:21.087Z,6.80
2023-02-04T07:38:47.681Z,6.90
2023-02-04T07:41:14.230Z,6.90
2023-02-04T07:43:40.882Z,6.90
2023-02-04T07:46:07.729Z,6.90
2023-02-04T07:48:34.303Z,7.00
2023-02-04T07:51:00.903Z,7.00
2023-02-04T07:53:27.477Z,7.00
2023-02-04T07:55:54.098Z,7.00
2023-02-04T07:58:20.622Z,7.00
2023-02-04T08:00:47.158Z,7.00
2023-02-04T08:03:13.757Z,7.10
2023-02-04T08:05:40.365Z,7.20
2023-02-04T08:08:07.005Z,7.20
2023-02-04T08:10:34.535Z,7.20
2023-02-04T08:13:01.288Z,7.20
2023-02-04T08:15:27.833Z,7.20
2023-02-04T08:17:54.409Z,7.20
2023-02-04T08:20:20.997Z,7.30
2023-02-04T08:22:47.616Z,7.40
2023-02-04T08:25:14.196Z,7.50
2023-02-04T08:27:40.858Z,7.60
2023-02-04T08:30:08.964Z,7.70
2023-02-04T08:32:35.985Z,7.80
2023-02-04T08:35:02.616Z,7.80
2023-02-04T08:37:29.521Z,7.80
2023-02-04T08:39:56.176Z,7.80
2023-02-04T08:42:22.948Z,7.90
2023-02-04T08:44:49.549Z,8.00
2023-02-04T08:47:16.137Z,8.20
2023-02-04T08:49:42.705Z,8.30
2023-02-04T08:52:09.249Z,8.40
2023-02-04T08:54:36.031Z,8.60
2023-02-04T08:57:03.058Z,8.70
2023-02-04T08:59:29.805Z,8.70
2023-02-04T09:01:56.433Z,8.70
2023-02-04T09:04:24.129Z,9.00
2023-02-04T09:06:51.583Z,9.20
2023-02-04T09:09:18.225Z,9.20
2023-02-04T09:11:44.846Z,9.30
2023-02-04T09:14:11.518Z,9.40
2023-02-04T09:16:38.144Z,9.40
2023-02-04T09:19:05.480Z,9.20
2023-02-04T09:21:32.808Z,9.10
2023-02-04T09:23:59.399Z,9.10
2023-02-04T09:26:25.950Z,9.20
2023-02-04T09:28:52.538Z,9.20
2023-02-04T09:31:19.305Z,9.40
2023-02-04T09:33:45.952Z,9.50
2023-02-04T09:36:12.554Z,9.70
2023-02-04T09:38:39.115Z,9.80
2023-02-04T09:41:11.674Z,9.90
2023-02-04T09:43:44.022Z,9.90
2023-02-04T09:46:23.656Z,10.10
2023-02-04T09:48:50.808Z,10.20
2023-02-04T09:51:26.862Z,10.20
2023-02-04T09:53:55.594Z,10.10
2023-02-04T09:56:28.296Z,10.10
2023-02-04T09:58:54.831Z,10.30
2023-02-04T10:01:21.518Z,10.60
2023-02-04T10:03:51.187Z,11.00
2023-02-04T10:06:20.996Z,11.40
2023-02-04T10:08:50.555Z,11.70
2023-02-04T10:11:19.379Z,11.80
2023-02-04T10:13:50.216Z,11.80
2023-02-04T10:16:32.719Z,12.00
2023-02-04T10:19:03.426Z,11.80
2023-02-04T10:21:32.290Z,11.60
2023-02-04T10:24:01.335Z,11.40
2023-02-04T10:26:30.016Z,11.00
2023-02-04T10:29:12.221Z,10.70
2023-02-04T10:31:41.835Z,10.50
2023-02-04T10:34:18.650Z,10.40
2023-02-04T10:36:47.816Z,10.30
2023-02-04T10:39:22.878Z,10.40
2023-02-04T10:41:55.216Z,10.30
2023-02-04T10:44:33.331Z,10.40
2023-02-04T10:47:00.862Z,10.30
2023-02-04T10:49:27.847Z,10.40
2023-02-04T10:51:54.426Z,10.60
2023-02-04T10:54:30.919Z,10.90
2023-02-04T10:57:00.587Z,11.10
2023-02-04T10:59:29.002Z,10.90
2023-02-04T11:01:57.880Z,10.90
2023-02-04T11:04:26.012Z,10.90
2023-02-04T11:06:53.123Z,10.90
2023-02-04T11:09:20.045Z,10.90
2023-02-04T11:11:49.248Z,10.90
2023-02-04T11:14:29.840Z,10.70
2023-02-04T11:17:00.743Z,10.70
2023-02-04T11:19:38.088Z,10.80
2023-02-04T11:22:35.885Z,10.90
2023-02-04T11:25:02.751Z,11.00
2023-02-04T11:27:39.532Z,11.00
2023-02-04T11:30:19.984Z,10.90
2023-02-04T11:33:00.877Z,10.90
2023-02-04T11:35:29.246Z,10.70
2023-02-04T11:37:56.325Z,10.70
2023-02-04T11:40:28.631Z,10.70
2023-02-04T11:43:04.156Z,10.60
2023-02-04T11:45:36.321Z,10.70
2023-02-04T11:48:11.316Z,10.50
2023-02-04T11:50:41.681Z,10.60
2023-02-04T11:53:12.286Z,10.50
2023-02-04T11:55:47.636Z,10.40
2023-02-04T11:58:17.090Z,10.40
2023-02-04T12:00:44.484Z,10.30
2023-02-04T12:03:33.032Z,10.40
2023-02-04T12:06:00.288Z,10.50
2023-02-04T12:08:30.664Z,10.60
2023-02-04T12:11:11.114Z,10.70
2023-02-04T12:13:53.663Z,10.80
2023-02-04T12:16:20.804Z,10.80
2023-02-04T12:18:47.567Z,10.80
2023-02-04T12:21:18.693Z,10.80
2023-02-04T12:23:45.435Z,11.00
2023-02-04T12:26:12.353Z,11.10
2023-02-04T12:28:38.965Z,11.20
2023-02-04T12:31:05.585Z,11.10
2023-02-04T12:33:32.243Z,11.10
2023-02-04T12:35:58.812Z,11.00
2023-02-04T12:38:25.362Z,11.10
2023-02-04T12:40:52.025Z,11.00
2023-02-04T12:43:18.659Z,10.90
2023-02-04T12:45:47.752Z,11.00
2023-02-04T12:48:14.356Z,10.80
2023-02-04T12:50:41.229Z,10.70
2023-02-04T12:53:07.972Z,10.70
2023-02-04T12:55:34.961Z,10.70
2023-02-04T12:58:01.664Z,10.60
2023-02-04T13:00:28.308Z,10.60
2023-02-04T13:02:55.103Z,10.60
2023-02-04T13:05:22.358Z,10.60
2023-02-04T13:07:48.982Z,10.70
2023-02-04T13:10:16.023Z,10.70
2023-02-04T13:12:42.661Z,10.80
2023-02-04T13:15:10.511Z,10.80
2023-02-04T13:17:37.426Z,10.80
2023-02-04T13:20:05.141Z,10.80
2023-02-04T13:22:31.745Z,10.90
2023-02-04T13:24:58.421Z,10.90
2023-02-04T13:27:25.051Z,10.80
2023-02-04T13:29:51.604Z,10.80
2023-02-04T13:32:18.175Z,10.70
2023-02-04T13:34:44.752Z,10.70
2023-02-04T13:37:11.343Z,10.60
2023-02-04T13:39:37.915Z,10.50
2023-02-04T13:42:04.680Z,10.50
2023-02-04T13:44:31.445Z,10.60
2023-02-04T13:46:58.057Z,10.40
2023-02-04T13:49:24.732Z,10.30
2023-02-04T13:51:51.448Z,10.40
2023-02-04T13:54:18.042Z,10.50
2023-02-04T13:56:44.649Z,10.50
2023-02-04T13:59:11.232Z,10.50
2023-02-04T14:01:37.866Z,10.40
2023-02-04T14:04:04.506Z,10.40
2023-02-04T14:06:37.957Z,10.40
2023-02-04T14:09:04.978Z,10.30
2023-02-04T14:11:31.571Z,10.20
2023-02-04T14:13:58.108Z,10.20
2023-02-04T14:16:24.752Z,10.40
2023-02-04T14:18:51.677Z,10.60
2023-02-04T14:21:18.300Z,10.70
2023-02-04T14:23:45.017Z,10.70
2023-02-04T14:26:11.859Z,10.80
2023-02-04T14:28:38.413Z,10.80
2023-02-04T14:31:05.381Z,10.60
2023-02-04T14:33:31.948Z,10.50
2023-02-04T14:35:58.520Z,10.50
2023-02-04T14:38:30.597Z,10.50
2023-02-04T14:40:58.449Z,10.40
2023-02-04T14:43:25.571Z,10.30
2023-02-04T14:45:52.797Z,10.20
2023-02-04T14:48:19.614Z,10.20
2023-02-04T14:50:46.212Z,10.20
2023-02-04T14:53:12.942Z,10.30
2023-02-04T14:55:39.504Z,10.20
2023-02-04T14:58:06.422Z,10.20
2023-02-04T15:00:34.482Z,10.10
2023-02-04T15:03:01.223Z,10.00
2023-02-04T15:05:27.836Z,10.00
2023-02-04T15:07:54.408Z,9.70
2023-02-04T15:10:22.565Z,9.70
2023-02-04T15:12:49.288Z,9.50
2023-02-04T15:15:15.901Z,9.40
2023-02-04T15:17:42.472Z,9.40
2023-02-04T15:20:09.637Z,9.40
2023-02-04T15:22:36.350Z,9.40
2023-02-04T15:25:03.040Z,9.20
2023-02-04T15:27:29.762Z,9.30
2023-02-04T15:29:56.522Z,9.30
2023-02-04T15:32:23.075Z,9.30
2023-02-04T15:34:49.681Z,9.20
2023-02-04T15:37:16.252Z,9.10
2023-02-04T15:39:43.619Z,9.00
2023-02-04T15:42:11.057Z,9.00
2023-02-04T15:44:37.935Z,8.90
2023-02-04T15:47:06.370Z,8.90
2023-02-04T15:49:33.761Z,8.90
2023-02-04T15:52:00.459Z,8.90
2023-02-04T15:54:27.003Z,8.90
2023-02-04T15:56:53.576Z,8.90
2023-02-04T15:59:20.189Z,8.80
2023-02-04T16:01:46.746Z,8.80
2023-02-04T16:04:13.359Z,8.70
2023-02-04T16:06:43.032Z,8.50
2023-02-04T16:09:11.715Z,8.40
2023-02-04T16:11:40.163Z,8.40
2023-02-04T16:14:07.220Z,8.30
2023-02-04T16:16:33.802Z,8.10
2023-02-04T16:19:00.580Z,8.00
2023-02-04T16:21:27.163Z,7.80
2023-02-04T16:23:53.722Z,7.70
2023-02-04T16:26:20.325Z,7.60
2023-02-04T16:28:47.768Z,7.60
2023-02-04T16:31:15.336Z,7.60
2023-02-04T16:33:42.048Z,7.40
2023-02-04T16:36:12.534Z,7.40
2023-02-04T16:38:40.241Z,7.40
2023-02-04T16:41:07.515Z,7.40
2023-02-04T16:43:34.176Z,7.40
2023-02-04T16:46:00.780Z,7.30
2023-02-04T16:48:28.525Z,7.30
2023-02-04T16:50:55.284Z,7.20
2023-02-04T16:53:22.287Z,7.10
2023-02-04T16:55:49.099Z,6.90
2023-02-04T16:58:15.971Z,6.80
2023-02-04T17:00:43.976Z,6.90
2023-02-04T17:03:14.092Z,6.80
2023-02-04T17:05:41.480Z,6.70
2023-02-04T17:08:08.740Z,6.70
2023-02-04T17:10:53.797Z,6.60
2023-02-04T17:13:20.558Z,6.50
2023-02-04T17:15:47.119Z,6.40
2023-02-04T17:18:13.709Z,6.40
2023-02-04T17:20:40.360Z,6.40
2023-02-04T17:23:06.985Z,6.40
2023-02-04T17:25:33.864Z,6.40
2023-02-04T17:28:00.735Z,6.30
2023-02-04T17:30:27.624Z,6.20
2023-02-04T17:32:56.684Z,6.20
2023-02-04T17:35:23.322Z,7.30
2023-02-04T17:37:49.904Z,6.00
2023-02-04T17:40:16.708Z,6.00
2023-02-04T17:42:43.296Z,6.00
2023-02-04T17:45:11.155Z,6.00
2023-02-04T17:47:38.834Z,5.90
2023-02-04T17:50:07.613Z,5.90
2023-02-04T17:52:34.449Z,5.80
2023-02-04T17:55:02.425Z,5.80
2023-02-04T17:57:29.039Z,5.70
2023-02-04T17:59:55.638Z,5.50
2023-02-04T18:02:29.630Z,5.50
2023-02-04T18:05:02.976Z,5.40
2023-02-04T18:07:30.309Z,5.40
2023-02-04T18:10:18.104Z,5.40
2023-02-04T18:12:45.086Z,5.40
2023-02-04T18:15:30.325Z,5.30
2023-02-04T18:18:22.085Z,5.30
2023-02-04T18:21:03.391Z,5.30
2023-02-04T18:23:39.659Z,5.30
2023-02-04T18:26:24.664Z,5.20
2023-02-04T18:28:54.135Z,5.20
2023-02-04T18:31:56.924Z,5.10
2023-02-04T18:34:45.328Z,5.00
2023-02-04T18:37:26.674Z,4.90
2023-02-04T18:40:16.396Z,4.80
2023-02-04T18:42:45.001Z,4.70
2023-02-04T18:45:27.363Z,4.70
2023-02-04T18:48:21.296Z,4.60
2023-02-04T18:50:50.208Z,4.60
2023-02-04T18:53:27.316Z,4.60
2023-02-04T18:55:58.902Z,4.60
2023-02-04T18:58:35.182Z,4.60
2023-02-04T19:01:12.864Z,4.60
2023-02-04T19:03:51.412Z,4.70
2023-02-04T19:06:38.264Z,4.70
2023-02-04T19:09:13.775Z,4.70
2023-02-04T19:11:52.894Z,4.70
2023-02-04T19:14:31.439Z,4.70
2023-02-04T19:17:25.112Z,4.60
2023-02-04T19:19:56.903Z,4.70
2023-02-04T19:22:35.468Z,4.70
2023-02-04T19:25:30.770Z,4.70
2023-02-04T19:28:02.674Z,4.60
2023-02-04T19:30:29.301Z,4.60
2023-02-04T19:33:01.372Z,4.70
2023-02-04T19:35:35.805Z,4.80
2023-02-04T19:38:28.807Z,4.70
2023-02-04T19:40:55.431Z,6.10
2023-02-04T19:43:37.128Z,4.50
2023-02-04T19:46:24.027Z,4.50
2023-02-04T19:48:51.236Z,4.50
2023-02-04T19:51:27.908Z,4.50
2023-02-04T19:54:43.812Z,4.50
2023-02-04T19:57:37.125Z,4.60
2023-02-04T20:00:38.416Z,4.70
2023-02-04T20:03:27.590Z,4.70
2023-02-04T20:05:58.071Z,4.70
2023-02-04T20:08:43.835Z,4.70
2023-02-04T20:11:35.370Z,4.70
2023-02-04T20:14:14.107Z,4.70
2023-02-04T20:16:46.358Z,4.70
2023-02-04T20:19:19.252Z,4.80
2023-02-04T20:22:10.484Z,4.80
2023-02-04T20:24:39.714Z,4.80
2023-02-04T20:27:32.847Z,4.80
2023-02-04T20:30:09.766Z,4.80
2023-02-04T20:32:45.154Z,4.90
2023-02-04T20:35:20.339Z,4.80
2023-02-04T20:37:52.179Z,4.80
2023-02-04T20:40:34.748Z,4.80
2023-02-04T20:43:14.036Z,4.80
2023-02-04T20:45:55.427Z,4.80
2023-02-04T20:48:36.936Z,4.90
2023-02-04T20:51:05.125Z,4.90
2023-02-04T20:53:38.719Z,4.90
2023-02-04T20:56:25.173Z,4.90
2023-02-04T20:59:02.539Z,5.00
2023-02-04T21:01:37.573Z,5.00
2023-02-04T21:04:18.408Z,5.00
2023-02-04T21:06:45.460Z,5.10
2023-02-04T21:09:29.034Z,5.10
2023-02-04T21:11:57.311Z,5.20
2023-02-04T21:14:24.643Z,5.20
2023-02-04T21:16:52.583Z,5.20
2023-02-04T21:19:20.011Z,5.20
2023-02-04T21:21:46.801Z,5.20
2023-02-04T21:24:13.486Z,5.20
2023-02-04T21:26:40.147Z,5.20
2023-02-04T21:29:06.906Z,5.30
2023-02-04T21:31:33.937Z,5.20
2023-02-04T21:34:00.583Z,5.30
2023-02-04T21:36:29.989Z,5.40
2023-02-04T21:38:57.642Z,5.40
2023-02-04T21:41:24.592Z,5.40
2023-02-04T21:43:51.681Z,5.30
2023-02-04T21:46:18.898Z,5.30
2023-02-04T21:48:46.013Z,5.30
2023-02-04T21:51:13.940Z,5.30
2023-02-04T21:53:40.776Z,5.30
2023-02-04T21:56:08.732Z,5.30
2023-02-04T21:58:35.847Z,5.30
2023-02-04T22:01:02.468Z,5.40
2023-02-04T22:03:29.112Z,5.30
2023-02-04T22:05:55.692Z,5.30
2023-02-04T22:08:22.419Z,5.30
2023-02-04T22:10:48.957Z,5.30
2023-02-04T22:13:15.526Z,5.40
2023-02-04T22:15:42.112Z,5.40
2023-02-04T22:18:09.189Z,5.40
2023-02-04T22:20:37.092Z,5.40
2023-02-04T22:23:04.909Z,5.40
2023-02-04T22:25:31.822Z,5.40
2023-02-04T22:27:58.751Z,5.50
2023-02-04T22:30:25.418Z,5.50
2023-02-04T22:32:52.020Z,5.50
2023-02-04T22:35:18.675Z,5.50
2023-02-04T22:37:45.288Z,5.50
2023-02-04T22:40:12.486Z,5.50
2023-02-04T22:42:39.351Z,5.50
2023-02-04T22:45:07.831Z,5.40
2023-02-04T22:47:34.395Z,5.40
2023-02-04T22:50:00.983Z,5.40
2023-02-04T22:52:27.665Z,5.40
2023-02-04T22:54:54.209Z,5.40
2023-02-04T22:57:20.755Z,5.40
2023-02-04T22:59:47.385Z,5.40
2023-02-04T23:02:14.017Z,5.40
2023-02-04T23:04:43.821Z,5.40
2023-02-04T23:07:11.502Z,5.30
2023-02-04T23:09:38.201Z,5.30
2023-02-04T23:12:14.074Z,5.30
2023-02-04T23:14:46.682Z,5.30
2023-02-04T23:17:15.156Z,5.30
2023-02-04T23:19:41.719Z,5.30
2023-02-04T23:22:10.447Z,5.30
2023-02-04T23:24:37.836Z,5.30
2023-02-04T23:27:05.123Z,5.30
2023-02-04T23:29:32.250Z,5.30
2023-02-04T23:31:59.319Z,5.20
2023-02-04T23:34:25.922Z,5.20
2023-02-04T23:36:52.530Z,5.30
2023-02-04T23:39:20.571Z,5.30
2023-02-04T23:41:50.006Z,5.40
2023-02-04T23:44:16.627Z,5.40
2023-02-04T23:46:43.196Z,5.50
2023-02-04T23:49:09.836Z,5.50
2023-02-04T23:51:36.933Z,5.50
2023-02-04T23:54:03.983Z,5.60
2023-02-04T23:56:30.628Z,5.60
2023-02-04T23:58:57.295Z,5.60
